sensor_id;sensor_type;location;lat;lon;timestamp;pressure;altitude;pressure_sealevel;temperature;humidity
59367;BME280;45163;47.690;11.770;2022-12-18T00:01:02;94177.78;;;-10.21;100.00
59367;BME280;45163;47.690;11.770;2022-12-18T00:03:33;94168.50;;;-10.38;100.00
59367;BME280;45163;47.690;11.770;2022-12-18T00:05:59;94173.88;;;-10.24;100.00
59367;BME280;45163;47.690;11.770;2022-12-18T00:08:25;94168.53;;;-10.19;100.00
59367;BME280;45163;47.690;11.770;2022-12-18T00:10:51;94154.63;;;-10.24;100.00
59367;BME280;45163;47.690;11.770;2022-12-18T00:13:17;94163.91;;;-10.27;100.00
59367;BME280;45163;47.690;11.770;2022-12-18T00:15:43;94166.22;;;-10.44;100.00
59367;BME280;45163;47.690;11.770;2022-12-18T00:18:09;94161.06;;;-10.55;100.00
59367;BME280;45163;47.690;11.770;2022-12-18T00:20:39;94156.00;;;-10.51;100.00
59367;BME280;45163;47.690;11.770;2022-12-18T00:23:06;94154.25;;;-10.37;100.00
59367;BME280;45163;47.690;11.770;2022-12-18T00:25:36;94163.97;;;-10.32;100.00
59367;BME280;45163;47.690;11.770;2022-12-18T00:28:03;94157.69;;;-10.36;100.00
59367;BME280;45163;47.690;11.770;2022-12-18T00:30:29;94163.63;;;-10.49;100.00
59367;BME280;45163;47.690;11.770;2022-12-18T00:32:55;94153.59;;;-10.47;100.00
59367;BME280;45163;47.690;11.770;2022-12-18T00:35:22;94149.81;;;-10.41;100.00
59367;BME280;45163;47.690;11.770;2022-12-18T00:37:48;94156.28;;;-10.52;100.00
59367;BME280;45163;47.690;11.770;2022-12-18T00:40:14;94157.97;;;-10.62;100.00
59367;BME280;45163;47.690;11.770;2022-12-18T00:42:40;94161.84;;;-10.54;100.00
59367;BME280;45163;47.690;11.770;2022-12-18T00:45:31;94157.88;;;-10.33;100.00
59367;BME280;45163;47.690;11.770;2022-12-18T00:47:57;94153.97;;;-10.35;100.00
59367;BME280;45163;47.690;11.770;2022-12-18T00:50:24;94151.56;;;-10.32;100.00
59367;BME280;45163;47.690;11.770;2022-12-18T00:52:50;94149.47;;;-10.35;100.00
59367;BME280;45163;47.690;11.770;2022-12-18T00:55:17;94156.31;;;-10.34;100.00
59367;BME280;45163;47.690;11.770;2022-12-18T00:57:43;94149.31;;;-10.43;100.00
59367;BME280;45163;47.690;11.770;2022-12-18T01:00:13;94161.50;;;-10.47;100.00
59367;BME280;45163;47.690;11.770;2022-12-18T01:02:40;94161.66;;;-10.39;100.00
59367;BME280;45163;47.690;11.770;2022-12-18T01:05:07;94159.97;;;-10.30;100.00
59367;BME280;45163;47.690;11.770;2022-12-18T01:07:33;94169.19;;;-10.27;100.00
59367;BME280;45163;47.690;11.770;2022-12-18T01:10:00;94171.28;;;-10.48;100.00
59367;BME280;45163;47.690;11.770;2022-12-18T01:12:26;94176.78;;;-10.44;100.00
59367;BME280;45163;47.690;11.770;2022-12-18T01:14:51;94183.25;;;-10.37;100.00
59367;BME280;45163;47.690;11.770;2022-12-18T01:17:17;94184.72;;;-10.49;100.00
59367;BME280;45163;47.690;11.770;2022-12-18T01:19:43;94189.19;;;-10.45;100.00
59367;BME280;45163;47.690;11.770;2022-12-18T01:22:09;94197.03;;;-10.40;100.00
59367;BME280;45163;47.690;11.770;2022-12-18T01:24:35;94198.44;;;-10.47;100.00
59367;BME280;45163;47.690;11.770;2022-12-18T01:27:01;94202.38;;;-10.45;100.00
59367;BME280;45163;47.690;11.770;2022-12-18T01:29:27;94204.78;;;-10.48;100.00
59367;BME280;45163;47.690;11.770;2022-12-18T01:31:55;94212.88;;;-10.40;100.00
59367;BME280;45163;47.690;11.770;2022-12-18T01:34:22;94211.91;;;-10.25;100.00
59367;BME280;45163;47.690;11.770;2022-12-18T01:36:48;94213.47;;;-10.24;100.00
59367;BME280;45163;47.690;11.770;2022-12-18T01:39:15;94209.94;;;-10.38;100.00
59367;BME280;45163;47.690;11.770;2022-12-18T01:41:41;94211.00;;;-10.39;100.00
59367;BME280;45163;47.690;11.770;2022-12-18T01:52:45;94228.56;;;-10.30;100.00
59367;BME280;45163;47.690;11.770;2022-12-18T01:55:12;94220.66;;;-10.30;100.00
59367;BME280;45163;47.690;11.770;2022-12-18T01:57:41;94214.56;;;-10.49;100.00
59367;BME280;45163;47.690;11.770;2022-12-18T02:00:19;94212.72;;;-10.48;100.00
59367;BME280;45163;47.690;11.770;2022-12-18T02:02:46;94226.91;;;-10.44;100.00
59367;BME280;45163;47.690;11.770;2022-12-18T02:05:15;94219.53;;;-10.47;100.00
59367;BME280;45163;47.690;11.770;2022-12-18T02:12:48;94222.69;;;-10.45;100.00
59367;BME280;45163;47.690;11.770;2022-12-18T02:15:21;94218.47;;;-10.46;100.00
59367;BME280;45163;47.690;11.770;2022-12-18T02:18:23;94227.94;;;-10.45;100.00
59367;BME280;45163;47.690;11.770;2022-12-18T02:23:47;94226.06;;;-10.40;100.00
59367;BME280;45163;47.690;11.770;2022-12-18T02:31:51;94229.34;;;-10.29;100.00
59367;BME280;45163;47.690;11.770;2022-12-18T02:34:19;94219.41;;;-10.37;100.00
59367;BME280;45163;47.690;11.770;2022-12-18T02:36:48;94219.53;;;-10.47;100.00
59367;BME280;45163;47.690;11.770;2022-12-18T02:39:15;94219.94;;;-10.59;100.00
59367;BME280;45163;47.690;11.770;2022-12-18T02:41:42;94229.16;;;-10.57;100.00
59367;BME280;45163;47.690;11.770;2022-12-18T02:44:13;94218.31;;;-10.55;100.00
59367;BME280;45163;47.690;11.770;2022-12-18T02:46:42;94232.28;;;-10.55;100.00
59367;BME280;45163;47.690;11.770;2022-12-18T02:55:58;94225.94;;;-10.54;100.00
59367;BME280;45163;47.690;11.770;2022-12-18T02:58:40;94233.41;;;-10.61;100.00
59367;BME280;45163;47.690;11.770;2022-12-18T03:03:59;94217.81;;;-10.57;100.00
59367;BME280;45163;47.690;11.770;2022-12-18T03:06:35;94229.09;;;-10.51;100.00
59367;BME280;45163;47.690;11.770;2022-12-18T03:09:07;94229.25;;;-10.43;100.00
59367;BME280;45163;47.690;11.770;2022-12-18T03:11:38;94226.94;;;-10.25;100.00
59367;BME280;45163;47.690;11.770;2022-12-18T03:14:25;94220.41;;;-10.09;100.00
59367;BME280;45163;47.690;11.770;2022-12-18T03:16:57;94218.84;;;-10.10;100.00
59367;BME280;45163;47.690;11.770;2022-12-18T03:19:28;94220.78;;;-10.21;100.00
59367;BME280;45163;47.690;11.770;2022-12-18T03:21:56;94222.66;;;-10.21;100.00
59367;BME280;45163;47.690;11.770;2022-12-18T03:24:24;94232.53;;;-10.27;100.00
59367;BME280;45163;47.690;11.770;2022-12-18T03:26:58;94226.66;;;-10.24;100.00
59367;BME280;45163;47.690;11.770;2022-12-18T03:29:36;94221.31;;;-10.19;100.00
59367;BME280;45163;47.690;11.770;2022-12-18T03:32:12;94230.78;;;-10.18;100.00
59367;BME280;45163;47.690;11.770;2022-12-18T03:34:41;94214.63;;;-10.11;100.00
59367;BME280;45163;47.690;11.770;2022-12-18T03:37:09;94215.97;;;-10.14;100.00
59367;BME280;45163;47.690;11.770;2022-12-18T03:39:37;94214.34;;;-10.10;100.00
59367;BME280;45163;47.690;11.770;2022-12-18T03:44:36;94210.78;;;-10.00;100.00
59367;BME280;45163;47.690;11.770;2022-12-18T03:47:26;94208.50;;;-9.88;100.00
59367;BME280;45163;47.690;11.770;2022-12-18T03:49:57;94214.94;;;-9.75;100.00
59367;BME280;45163;47.690;11.770;2022-12-18T03:54:55;94229.22;;;-9.38;100.00
59367;BME280;45163;47.690;11.770;2022-12-18T03:57:26;94216.53;;;-9.36;100.00
59367;BME280;45163;47.690;11.770;2022-12-18T04:00:00;94224.38;;;-9.50;100.00
59367;BME280;45163;47.690;11.770;2022-12-18T04:02:27;94221.22;;;-9.71;100.00
59367;BME280;45163;47.690;11.770;2022-12-18T04:04:58;94216.00;;;-9.76;100.00
59367;BME280;45163;47.690;11.770;2022-12-18T04:07:26;94221.09;;;-9.61;100.00
59367;BME280;45163;47.690;11.770;2022-12-18T04:09:55;94227.94;;;-9.60;100.00
59367;BME280;45163;47.690;11.770;2022-12-18T04:12:25;94227.09;;;-9.55;100.00
59367;BME280;45163;47.690;11.770;2022-12-18T04:14:52;94231.38;;;-9.59;100.00
59367;BME280;45163;47.690;11.770;2022-12-18T04:17:18;94231.94;;;-9.81;100.00
59367;BME280;45163;47.690;11.770;2022-12-18T04:19:44;94222.97;;;-10.04;100.00
59367;BME280;45163;47.690;11.770;2022-12-18T04:22:10;94221.19;;;-10.09;100.00
59367;BME280;45163;47.690;11.770;2022-12-18T04:24:36;94224.44;;;-10.17;100.00
59367;BME280;45163;47.690;11.770;2022-12-18T04:27:02;94224.19;;;-10.15;100.00
59367;BME280;45163;47.690;11.770;2022-12-18T04:29:29;94221.25;;;-10.14;100.00
59367;BME280;45163;47.690;11.770;2022-12-18T04:31:55;94227.09;;;-10.17;100.00
59367;BME280;45163;47.690;11.770;2022-12-18T04:34:21;94229.31;;;-10.05;100.00
59367;BME280;45163;47.690;11.770;2022-12-18T04:36:47;94228.50;;;-9.82;100.00
59367;BME280;45163;47.690;11.770;2022-12-18T04:39:14;94238.84;;;-9.85;100.00
59367;BME280;45163;47.690;11.770;2022-12-18T04:41:40;94228.91;;;-9.93;100.00
59367;BME280;45163;47.690;11.770;2022-12-18T04:44:06;94233.84;;;-9.87;100.00
59367;BME280;45163;47.690;11.770;2022-12-18T04:46:32;94225.66;;;-9.85;100.00
59367;BME280;45163;47.690;11.770;2022-12-18T04:48:58;94230.47;;;-9.92;100.00
59367;BME280;45163;47.690;11.770;2022-12-18T04:51:24;94227.41;;;-9.99;100.00
59367;BME280;45163;47.690;11.770;2022-12-18T04:53:50;94214.34;;;-10.10;100.00
59367;BME280;45163;47.690;11.770;2022-12-18T04:56:16;94227.00;;;-10.12;100.00
59367;BME280;45163;47.690;11.770;2022-12-18T04:58:44;94231.94;;;-10.24;100.00
59367;BME280;45163;47.690;11.770;2022-12-18T05:01:11;94235.00;;;-10.36;100.00
59367;BME280;45163;47.690;11.770;2022-12-18T05:03:38;94243.06;;;-10.27;100.00
59367;BME280;45163;47.690;11.770;2022-12-18T05:06:05;94240.25;;;-9.93;100.00
59367;BME280;45163;47.690;11.770;2022-12-18T05:08:32;94241.38;;;-9.99;100.00
59367;BME280;45163;47.690;11.770;2022-12-18T05:11:18;94240.34;;;-10.22;100.00
59367;BME280;45163;47.690;11.770;2022-12-18T05:13:44;94251.63;;;-10.16;100.00
59367;BME280;45163;47.690;11.770;2022-12-18T05:16:11;94251.06;;;-10.13;100.00
59367;BME280;45163;47.690;11.770;2022-12-18T05:18:37;94262.06;;;-10.06;100.00
59367;BME280;45163;47.690;11.770;2022-12-18T05:21:04;94260.16;;;-10.00;100.00
59367;BME280;45163;47.690;11.770;2022-12-18T05:23:30;94263.19;;;-9.88;100.00
59367;BME280;45163;47.690;11.770;2022-12-18T05:25:58;94264.19;;;-9.84;100.00
59367;BME280;45163;47.690;11.770;2022-12-18T05:28:26;94267.16;;;-9.91;100.00
59367;BME280;45163;47.690;11.770;2022-12-18T05:30:54;94269.09;;;-9.96;100.00
59367;BME280;45163;47.690;11.770;2022-12-18T05:33:21;94271.50;;;-10.00;100.00
59367;BME280;45163;47.690;11.770;2022-12-18T05:35:52;94276.44;;;-10.17;100.00
59367;BME280;45163;47.690;11.770;2022-12-18T05:38:19;94277.78;;;-10.20;100.00
59367;BME280;45163;47.690;11.770;2022-12-18T05:40:47;94281.44;;;-10.16;100.00
59367;BME280;45163;47.690;11.770;2022-12-18T05:43:13;94276.38;;;-10.12;100.00
59367;BME280;45163;47.690;11.770;2022-12-18T05:45:40;94281.97;;;-10.14;100.00
59367;BME280;45163;47.690;11.770;2022-12-18T05:48:07;94278.34;;;-9.99;100.00
59367;BME280;45163;47.690;11.770;2022-12-18T05:50:38;94279.34;;;-9.95;100.00
59367;BME280;45163;47.690;11.770;2022-12-18T05:53:05;94277.78;;;-9.96;100.00
59367;BME280;45163;47.690;11.770;2022-12-18T05:55:35;94274.88;;;-9.94;100.00
59367;BME280;45163;47.690;11.770;2022-12-18T05:58:03;94289.66;;;-9.93;100.00
59367;BME280;45163;47.690;11.770;2022-12-18T06:00:30;94292.63;;;-9.76;100.00
59367;BME280;45163;47.690;11.770;2022-12-18T06:02:56;94298.06;;;-9.67;100.00
59367;BME280;45163;47.690;11.770;2022-12-18T06:05:22;94298.06;;;-9.67;100.00
59367;BME280;45163;47.690;11.770;2022-12-18T06:07:48;94298.59;;;-9.70;100.00
59367;BME280;45163;47.690;11.770;2022-12-18T06:10:14;94304.13;;;-9.67;100.00
59367;BME280;45163;47.690;11.770;2022-12-18T06:12:40;94306.44;;;-9.84;100.00
59367;BME280;45163;47.690;11.770;2022-12-18T06:15:06;94300.22;;;-9.93;100.00
59367;BME280;45163;47.690;11.770;2022-12-18T06:17:32;94298.97;;;-10.01;100.00
59367;BME280;45163;47.690;11.770;2022-12-18T06:19:58;94305.66;;;-10.09;100.00
59367;BME280;45163;47.690;11.770;2022-12-18T06:22:25;94305.19;;;-10.16;100.00
59367;BME280;45163;47.690;11.770;2022-12-18T06:24:51;94299.38;;;-10.13;100.00
59367;BME280;45163;47.690;11.770;2022-12-18T06:27:17;94294.44;;;-10.19;100.00
59367;BME280;45163;47.690;11.770;2022-12-18T06:29:43;94302.47;;;-10.06;100.00
59367;BME280;45163;47.690;11.770;2022-12-18T06:32:09;94300.53;;;-10.00;100.00
59367;BME280;45163;47.690;11.770;2022-12-18T06:34:38;94296.63;;;-10.02;100.00
59367;BME280;45163;47.690;11.770;2022-12-18T06:37:04;94295.09;;;-10.09;100.00
59367;BME280;45163;47.690;11.770;2022-12-18T06:39:30;94293.84;;;-10.16;100.00
59367;BME280;45163;47.690;11.770;2022-12-18T06:41:56;94303.69;;;-10.22;100.00
59367;BME280;45163;47.690;11.770;2022-12-18T06:44:22;94306.03;;;-10.20;100.00
59367;BME280;45163;47.690;11.770;2022-12-18T06:46:48;94293.38;;;-9.94;100.00
59367;BME280;45163;47.690;11.770;2022-12-18T06:49:14;94295.16;;;-9.90;100.00
59367;BME280;45163;47.690;11.770;2022-12-18T06:51:41;94299.31;;;-9.84;100.00
59367;BME280;45163;47.690;11.770;2022-12-18T06:54:07;94306.16;;;-9.83;100.00
59367;BME280;45163;47.690;11.770;2022-12-18T06:56:33;94305.66;;;-9.85;100.00
59367;BME280;45163;47.690;11.770;2022-12-18T06:59:00;94303.03;;;-9.66;100.00
59367;BME280;45163;47.690;11.770;2022-12-18T07:01:26;94314.41;;;-9.65;100.00
59367;BME280;45163;47.690;11.770;2022-12-18T07:03:53;94309.78;;;-9.55;100.00
59367;BME280;45163;47.690;11.770;2022-12-18T07:06:22;94322.06;;;-9.45;100.00
59367;BME280;45163;47.690;11.770;2022-12-18T07:08:49;94329.66;;;-9.38;100.00
59367;BME280;45163;47.690;11.770;2022-12-18T07:11:16;94328.25;;;-9.31;100.00
59367;BME280;45163;47.690;11.770;2022-12-18T07:13:43;94329.09;;;-9.35;100.00
59367;BME280;45163;47.690;11.770;2022-12-18T07:16:14;94328.44;;;-9.46;100.00
59367;BME280;45163;47.690;11.770;2022-12-18T07:18:41;94338.88;;;-9.36;100.00
59367;BME280;45163;47.690;11.770;2022-12-18T07:21:09;94336.97;;;-9.30;100.00
59367;BME280;45163;47.690;11.770;2022-12-18T07:23:35;94338.44;;;-9.24;100.00
59367;BME280;45163;47.690;11.770;2022-12-18T07:26:07;94339.09;;;-9.32;100.00
59367;BME280;45163;47.690;11.770;2022-12-18T07:28:35;94344.72;;;-9.39;100.00
59367;BME280;45163;47.690;11.770;2022-12-18T07:31:06;94340.22;;;-9.38;100.00
59367;BME280;45163;47.690;11.770;2022-12-18T07:33:33;94343.16;;;-9.40;100.00
59367;BME280;45163;47.690;11.770;2022-12-18T07:36:04;94346.56;;;-9.15;100.00
59367;BME280;45163;47.690;11.770;2022-12-18T07:38:31;94350.13;;;-9.06;100.00
59367;BME280;45163;47.690;11.770;2022-12-18T07:41:15;94347.09;;;-8.99;100.00
59367;BME280;45163;47.690;11.770;2022-12-18T07:43:41;94347.53;;;-8.92;100.00
59367;BME280;45163;47.690;11.770;2022-12-18T07:46:08;94348.31;;;-8.92;100.00
59367;BME280;45163;47.690;11.770;2022-12-18T07:48:34;94340.38;;;-8.92;100.00
59367;BME280;45163;47.690;11.770;2022-12-18T07:51:02;94344.59;;;-8.91;100.00
59367;BME280;45163;47.690;11.770;2022-12-18T07:53:28;94346.06;;;-8.98;100.00
59367;BME280;45163;47.690;11.770;2022-12-18T07:56:04;94342.03;;;-8.96;100.00
59367;BME280;45163;47.690;11.770;2022-12-18T07:58:31;94343.56;;;-8.90;100.00
59367;BME280;45163;47.690;11.770;2022-12-18T08:01:08;94353.31;;;-8.90;100.00
59367;BME280;45163;47.690;11.770;2022-12-18T08:03:35;94358.97;;;-8.97;100.00
59367;BME280;45163;47.690;11.770;2022-12-18T08:06:06;94362.13;;;-8.95;100.00
59367;BME280;45163;47.690;11.770;2022-12-18T08:08:33;94346.75;;;-8.93;100.00
59367;BME280;45163;47.690;11.770;2022-12-18T08:11:00;94353.53;;;-8.87;100.00
59367;BME280;45163;47.690;11.770;2022-12-18T08:13:26;94361.13;;;-8.80;100.00
59367;BME280;45163;47.690;11.770;2022-12-18T08:16:03;94362.38;;;-8.59;100.00
59367;BME280;45163;47.690;11.770;2022-12-18T08:18:29;94366.94;;;-8.45;100.00
59367;BME280;45163;47.690;11.770;2022-12-18T08:20:55;94355.22;;;-8.25;100.00
59367;BME280;45163;47.690;11.770;2022-12-18T08:23:22;94360.72;;;-8.22;100.00
59367;BME280;45163;47.690;11.770;2022-12-18T08:25:48;94361.97;;;-8.19;100.00
59367;BME280;45163;47.690;11.770;2022-12-18T08:28:14;94365.72;;;-8.20;100.00
59367;BME280;45163;47.690;11.770;2022-12-18T08:30:40;94363.50;;;-8.32;100.00
59367;BME280;45163;47.690;11.770;2022-12-18T08:33:06;94368.25;;;-8.43;100.00
59367;BME280;45163;47.690;11.770;2022-12-18T08:35:35;94365.94;;;-8.49;100.00
59367;BME280;45163;47.690;11.770;2022-12-18T08:38:03;94357.22;;;-8.50;100.00
59367;BME280;45163;47.690;11.770;2022-12-18T08:40:29;94362.72;;;-8.33;100.00
59367;BME280;45163;47.690;11.770;2022-12-18T08:42:55;94368.28;;;-8.15;100.00
59367;BME280;45163;47.690;11.770;2022-12-18T08:45:40;94373.41;;;-8.05;100.00
59367;BME280;45163;47.690;11.770;2022-12-18T08:48:06;94364.59;;;-8.00;100.00
59367;BME280;45163;47.690;11.770;2022-12-18T08:50:32;94380.97;;;-7.98;100.00
59367;BME280;45163;47.690;11.770;2022-12-18T08:52:58;94382.00;;;-8.27;100.00
59367;BME280;45163;47.690;11.770;2022-12-18T08:55:24;94379.91;;;-8.30;100.00
59367;BME280;45163;47.690;11.770;2022-12-18T08:57:50;94381.22;;;-8.28;100.00
59367;BME280;45163;47.690;11.770;2022-12-18T09:00:16;94392.63;;;-8.13;100.00
59367;BME280;45163;47.690;11.770;2022-12-18T09:02:42;94382.56;;;-7.97;100.00
59367;BME280;45163;47.690;11.770;2022-12-18T09:05:08;94394.22;;;-7.98;100.00
59367;BME280;45163;47.690;11.770;2022-12-18T09:07:34;94385.97;;;-7.97;100.00
59367;BME280;45163;47.690;11.770;2022-12-18T09:10:00;94379.84;;;-7.65;100.00
59367;BME280;45163;47.690;11.770;2022-12-18T09:12:26;94378.72;;;-6.59;100.00
59367;BME280;45163;47.690;11.770;2022-12-18T09:14:52;94388.81;;;-5.31;100.00
59367;BME280;45163;47.690;11.770;2022-12-18T09:17:18;94388.38;;;-4.41;100.00
59367;BME280;45163;47.690;11.770;2022-12-18T09:19:44;94393.16;;;-3.18;100.00
59367;BME280;45163;47.690;11.770;2022-12-18T09:22:10;94387.78;;;-2.51;100.00
59367;BME280;45163;47.690;11.770;2022-12-18T09:24:36;94388.75;;;-1.47;100.00
59367;BME280;45163;47.690;11.770;2022-12-18T09:27:02;94391.97;;;-0.19;100.00
59367;BME280;45163;47.690;11.770;2022-12-18T09:29:28;94393.66;;;1.02;100.00
59367;BME280;45163;47.690;11.770;2022-12-18T09:31:54;94392.25;;;2.10;100.00
59367;BME280;45163;47.690;11.770;2022-12-18T09:34:20;94393.13;;;2.98;100.00
59367;BME280;45163;47.690;11.770;2022-12-18T09:36:48;94388.28;;;3.57;100.00
59367;BME280;45163;47.690;11.770;2022-12-18T09:39:14;94379.69;;;4.35;100.00
59367;BME280;45163;47.690;11.770;2022-12-18T09:46:54;94358.19;;;5.89;100.00
59367;BME280;45163;47.690;11.770;2022-12-18T09:49:27;94337.69;;;6.97;100.00
59367;BME280;45163;47.690;11.770;2022-12-18T09:55:29;94308.00;;;8.38;100.00
59367;BME280;45163;47.690;11.770;2022-12-18T09:58:02;94307.78;;;8.81;98.96
59367;BME280;45163;47.690;11.770;2022-12-18T10:00:30;94309.25;;;8.96;90.95
59367;BME280;45163;47.690;11.770;2022-12-18T10:03:01;94293.47;;;8.70;83.75
59367;BME280;45163;47.690;11.770;2022-12-18T10:05:40;94304.34;;;7.46;79.33
59367;BME280;45163;47.690;11.770;2022-12-18T10:08:15;94297.69;;;6.55;77.99
59367;BME280;45163;47.690;11.770;2022-12-18T10:10:47;94302.81;;;7.03;80.51
59367;BME280;45163;47.690;11.770;2022-12-18T10:24:26;94292.63;;;8.80;61.50
59367;BME280;45163;47.690;11.770;2022-12-18T10:27:14;94286.22;;;8.45;67.38
59367;BME280;45163;47.690;11.770;2022-12-18T10:29:44;94287.88;;;8.91;71.70
59367;BME280;45163;47.690;11.770;2022-12-18T10:32:25;94279.53;;;9.99;74.16
59367;BME280;45163;47.690;11.770;2022-12-18T10:34:54;94269.97;;;10.79;53.67
59367;BME280;45163;47.690;11.770;2022-12-18T10:37:23;94267.19;;;10.83;58.47
59367;BME280;45163;47.690;11.770;2022-12-18T10:40:12;94268.44;;;11.29;56.72
59367;BME280;45163;47.690;11.770;2022-12-18T10:42:39;94267.06;;;11.40;56.83
59367;BME280;45163;47.690;11.770;2022-12-18T10:47:43;94277.91;;;11.91;56.26
59367;BME280;45163;47.690;11.770;2022-12-18T10:50:38;94266.81;;;12.94;57.12
59367;BME280;45163;47.690;11.770;2022-12-18T10:53:05;94273.91;;;12.91;58.07
59367;BME280;45163;47.690;11.770;2022-12-18T10:55:37;94266.41;;;12.59;56.09
59367;BME280;45163;47.690;11.770;2022-12-18T11:00:41;94260.25;;;12.15;52.17
59367;BME280;45163;47.690;11.770;2022-12-18T11:03:38;94255.91;;;12.74;53.40
59367;BME280;45163;47.690;11.770;2022-12-18T11:08:34;94262.97;;;12.91;49.81
59367;BME280;45163;47.690;11.770;2022-12-18T11:11:01;94251.88;;;12.79;54.04
59367;BME280;45163;47.690;11.770;2022-12-18T11:13:29;94260.06;;;12.99;50.27
59367;BME280;45163;47.690;11.770;2022-12-18T11:15:56;94260.06;;;12.46;49.90
59367;BME280;45163;47.690;11.770;2022-12-18T11:18:27;94261.34;;;12.94;44.86
59367;BME280;45163;47.690;11.770;2022-12-18T11:21:11;94262.59;;;13.26;51.23
59367;BME280;45163;47.690;11.770;2022-12-18T11:23:49;94262.81;;;13.15;47.10
59367;BME280;45163;47.690;11.770;2022-12-18T11:26:15;94263.47;;;14.30;55.76
59367;BME280;45163;47.690;11.770;2022-12-18T11:28:47;94252.91;;;14.95;49.23
59367;BME280;45163;47.690;11.770;2022-12-18T11:33:52;94254.38;;;12.73;50.74
59367;BME280;45163;47.690;11.770;2022-12-18T11:36:21;94254.84;;;14.15;46.55
59367;BME280;45163;47.690;11.770;2022-12-18T11:38:49;94253.53;;;13.90;47.13
59367;BME280;45163;47.690;11.770;2022-12-18T11:41:46;94257.81;;;13.30;43.58
59367;BME280;45163;47.690;11.770;2022-12-18T11:44:38;94253.75;;;13.67;44.82
59367;BME280;45163;47.690;11.770;2022-12-18T11:47:30;94249.47;;;13.95;43.75
59367;BME280;45163;47.690;11.770;2022-12-18T11:50:03;94253.56;;;13.58;48.11
59367;BME280;45163;47.690;11.770;2022-12-18T11:52:39;94252.03;;;13.57;46.92
59367;BME280;45163;47.690;11.770;2022-12-18T11:55:28;94252.09;;;13.20;42.77
59367;BME280;45163;47.690;11.770;2022-12-18T12:00:51;94241.84;;;13.41;44.31
59367;BME280;45163;47.690;11.770;2022-12-18T12:25:51;94226.50;;;12.42;47.42
59367;BME280;45163;47.690;11.770;2022-12-18T12:34:36;94231.16;;;9.28;57.64
59367;BME280;45163;47.690;11.770;2022-12-18T12:39:47;94226.94;;;8.05;71.64
59367;BME280;45163;47.690;11.770;2022-12-18T12:42:24;94219.72;;;7.66;81.24
59367;BME280;45163;47.690;11.770;2022-12-18T12:45:54;94214.72;;;7.39;79.85
59367;BME280;45163;47.690;11.770;2022-12-18T12:51:17;94208.22;;;6.87;86.01
59367;BME280;45163;47.690;11.770;2022-12-18T12:53:45;94197.69;;;6.35;88.88
59367;BME280;45163;47.690;11.770;2022-12-18T12:56:13;94206.47;;;5.82;88.42
59367;BME280;45163;47.690;11.770;2022-12-18T13:01:36;94212.13;;;4.86;91.29
59367;BME280;45163;47.690;11.770;2022-12-18T13:09:12;94208.09;;;3.84;100.00
59367;BME280;45163;47.690;11.770;2022-12-18T13:11:40;94213.47;;;3.47;100.00
59367;BME280;45163;47.690;11.770;2022-12-18T13:20:08;94221.16;;;2.39;100.00
59367;BME280;45163;47.690;11.770;2022-12-18T13:22:42;94212.81;;;2.02;100.00
59367;BME280;45163;47.690;11.770;2022-12-18T13:28:04;94223.69;;;1.28;100.00
59367;BME280;45163;47.690;11.770;2022-12-18T13:36:01;94234.00;;;0.55;100.00
59367;BME280;45163;47.690;11.770;2022-12-18T13:43:49;94235.66;;;0.44;100.00
59367;BME280;45163;47.690;11.770;2022-12-18T13:49:28;94248.72;;;0.45;100.00
59367;BME280;45163;47.690;11.770;2022-12-18T13:51:57;94246.47;;;0.32;100.00
59367;BME280;45163;47.690;11.770;2022-12-18T13:54:35;94247.31;;;0.20;100.00
59367;BME280;45163;47.690;11.770;2022-12-18T13:57:02;94249.22;;;0.04;100.00
59367;BME280;45163;47.690;11.770;2022-12-18T13:59:38;94261.69;;;-0.04;100.00
59367;BME280;45163;47.690;11.770;2022-12-18T14:02:18;94259.28;;;-0.21;100.00
59367;BME280;45163;47.690;11.770;2022-12-18T14:04:47;94263.59;;;-0.33;100.00
59367;BME280;45163;47.690;11.770;2022-12-18T14:07:21;94261.44;;;-0.55;100.00
59367;BME280;45163;47.690;11.770;2022-12-18T14:09:50;94260.56;;;-0.71;100.00
59367;BME280;45163;47.690;11.770;2022-12-18T14:12:21;94265.41;;;-0.77;100.00
59367;BME280;45163;47.690;11.770;2022-12-18T14:17:55;94265.81;;;-1.28;100.00
59367;BME280;45163;47.690;11.770;2022-12-18T14:20:22;94270.06;;;-1.27;100.00
59367;BME280;45163;47.690;11.770;2022-12-18T14:22:49;94276.97;;;-1.50;100.00
59367;BME280;45163;47.690;11.770;2022-12-18T14:25:24;94280.16;;;-1.81;100.00
59367;BME280;45163;47.690;11.770;2022-12-18T14:30:36;94282.56;;;-2.13;100.00
59367;BME280;45163;47.690;11.770;2022-12-18T14:33:13;94284.00;;;-2.15;100.00
59367;BME280;45163;47.690;11.770;2022-12-18T14:36:02;94287.91;;;-2.13;100.00
59367;BME280;45163;47.690;11.770;2022-12-18T14:38:38;94291.28;;;-2.37;100.00
59367;BME280;45163;47.690;11.770;2022-12-18T14:41:09;94282.22;;;-2.44;100.00
59367;BME280;45163;47.690;11.770;2022-12-18T14:43:37;94275.25;;;-2.58;100.00
59367;BME280;45163;47.690;11.770;2022-12-18T14:48:59;94280.06;;;-2.72;100.00
59367;BME280;45163;47.690;11.770;2022-12-18T14:51:28;94275.41;;;-2.75;100.00
59367;BME280;45163;47.690;11.770;2022-12-18T14:53:57;94280.28;;;-2.77;100.00
59367;BME280;45163;47.690;11.770;2022-12-18T14:56:29;94279.22;;;-2.85;100.00
59367;BME280;45163;47.690;11.770;2022-12-18T14:59:11;94284.63;;;-2.93;100.00
59367;BME280;45163;47.690;11.770;2022-12-18T15:01:46;94272.91;;;-3.01;100.00
59367;BME280;45163;47.690;11.770;2022-12-18T15:04:36;94278.28;;;-3.10;100.00
59367;BME280;45163;47.690;11.770;2022-12-18T15:07:11;94282.22;;;-3.07;100.00
59367;BME280;45163;47.690;11.770;2022-12-18T15:09:40;94278.50;;;-3.15;100.00
59367;BME280;45163;47.690;11.770;2022-12-18T15:14:58;94279.84;;;-3.30;100.00
59367;BME280;45163;47.690;11.770;2022-12-18T15:17:25;94276.75;;;-3.40;100.00